Time;durP1;ratioP1;P1;durP2;ratioP2;P2;SDS_P1;SDS_P2;PMS_P1;PMS_P2;Temp;Humidity;BMP_temperature;BMP_pressure;BME280_temperature;BME280_humidity;BME280_pressure;Samples;Min_cycle;Max_cycle;Signal;HPM_P1;HPM_P2
2023/12/22 00:01:05;;;;;;;11.40;4.55;;;3.60;99.90;;;;;;5044411;28;20495;-87
2023/12/22 00:03:31;;;;;;;3.20;1.58;;;3.60;99.90;;;;;;5062282;28;20121;-87
2023/12/22 00:05:57;;;;;;;0.00;0.00;;;3.50;99.90;;;;;;5044613;28;20048;-87
2023/12/22 00:08:23;;;;;;;0.08;0.08;;;3.60;99.90;;;;;;5044209;28;20540;-87
2023/12/22 00:10:49;;;;;;;0.00;0.00;;;3.70;99.90;;;;;;5062042;28;20048;-88
2023/12/22 00:13:15;;;;;;;0.52;0.52;;;3.90;99.90;;;;;;5061822;28;20079;-87
2023/12/22 00:15:42;;;;;;;0.00;0.00;;;4.00;99.90;;;;;;5070232;28;20040;-87
2023/12/22 00:18:08;;;;;;;0.45;0.45;;;4.00;99.90;;;;;;5048524;28;20072;-87
2023/12/22 00:20:33;;;;;;;1.05;1.00;;;4.10;99.90;;;;;;5044257;28;20033;-87
2023/12/22 00:22:59;;;;;;;1.27;1.20;;;4.10;99.90;;;;;;5062093;28;20055;-87
2023/12/22 00:25:24;;;;;;;0.35;0.35;;;4.10;99.90;;;;;;5067717;28;20079;-87
2023/12/22 00:27:50;;;;;;;5.75;3.13;;;4.20;99.90;;;;;;5056314;28;20041;-87
2023/12/22 00:30:16;;;;;;;0.13;0.13;;;4.30;99.90;;;;;;5061573;28;20044;-87
2023/12/22 00:32:42;;;;;;;8.57;1.55;;;4.30;99.90;;;;;;5040506;28;20501;-87
2023/12/22 00:35:08;;;;;;;0.22;0.22;;;4.10;99.90;;;;;;5050729;28;20067;-87
2023/12/22 00:37:34;;;;;;;0.13;0.13;;;4.10;99.90;;;;;;5027805;28;20179;-87
2023/12/22 00:39:59;;;;;;;0.00;0.00;;;4.10;99.90;;;;;;5061085;28;20041;-87
2023/12/22 00:42:25;;;;;;;0.88;0.63;;;4.10;1.00;;;;;;5060468;28;20076;-87
2023/12/22 00:44:51;;;;;;;0.00;0.00;;;4.10;1.00;;;;;;5061058;28;20047;-87
2023/12/22 00:47:17;;;;;;;0.00;0.00;;;3.90;1.00;;;;;;5061061;28;20068;-87
2023/12/22 00:49:42;;;;;;;0.20;0.20;;;3.90;99.90;;;;;;5042958;28;20067;-87
2023/12/22 00:52:08;;;;;;;1.17;1.13;;;3.90;1.00;;;;;;5059912;28;20052;-87
2023/12/22 00:54:34;;;;;;;0.55;0.47;;;3.90;99.90;;;;;;5061117;28;20037;-87
2023/12/22 00:56:59;;;;;;;0.80;0.80;;;4.00;1.00;;;;;;5060974;28;20063;-87
2023/12/22 00:59:25;;;;;;;0.00;0.00;;;4.00;1.00;;;;;;5060978;28;20044;-87
2023/12/22 01:01:50;;;;;;;0.00;0.00;;;4.10;99.90;;;;;;5060249;28;20517;-87
2023/12/22 01:04:16;;;;;;;0.00;0.00;;;4.00;1.00;;;;;;5060866;28;20041;-87
2023/12/22 01:06:42;;;;;;;1.20;1.10;;;3.80;99.90;;;;;;5068033;28;20044;-87
2023/12/22 01:09:07;;;;;;;0.00;0.00;;;3.70;1.00;;;;;;5080149;28;20041;-87
2023/12/22 01:11:33;;;;;;;0.00;0.00;;;3.70;99.90;;;;;;5061036;28;20045;-87
2023/12/22 01:13:59;;;;;;;0.63;0.63;;;3.80;1.00;;;;;;5060806;28;20057;-87
2023/12/22 01:16:24;;;;;;;1.65;0.88;;;3.60;6.70;;;;;;5060578;28;20044;-87
2023/12/22 01:18:50;;;;;;;0.55;0.55;;;3.50;99.90;;;;;;5060701;28;20115;-88
2023/12/22 01:21:19;;;;;;;0.10;0.10;;;3.70;99.90;;;;;;5060285;28;20048;-87
2023/12/22 01:23:45;;;;;;;0.00;0.00;;;3.60;1.00;;;;;;5060245;28;20110;-87
2023/12/22 01:26:10;;;;;;;4.18;1.45;;;3.70;99.90;;;;;;5060201;28;20045;-87
2023/12/22 01:28:36;;;;;;;0.00;0.00;;;3.70;1.00;;;;;;5025832;28;20080;-87
2023/12/22 01:31:02;;;;;;;6.82;2.58;;;3.70;99.90;;;;;;5060146;28;20059;-87
2023/12/22 01:33:29;;;;;;;2.80;2.28;;;3.90;99.90;;;;;;5059932;28;20045;-87
2023/12/22 01:35:55;;;;;;;0.00;0.00;;;3.90;6.00;;;;;;5059444;28;20107;-87
2023/12/22 01:38:20;;;;;;;2.72;1.75;;;3.70;70.50;;;;;;5059877;28;20439;-87
2023/12/22 01:40:46;;;;;;;0.20;0.20;;;3.80;99.90;;;;;;5042883;28;20067;-87
2023/12/22 01:43:13;;;;;;;0.05;0.05;;;3.90;99.90;;;;;;5060718;28;20096;-87
2023/12/22 01:45:39;;;;;;;0.57;0.50;;;3.90;1.00;;;;;;5060336;28;20052;-87
2023/12/22 01:48:05;;;;;;;5.47;1.45;;;3.90;99.90;;;;;;5025184;28;20051;-87
2023/12/22 01:50:31;;;;;;;0.35;0.35;;;4.10;99.90;;;;;;5059849;28;20429;-87
2023/12/22 01:52:57;;;;;;;3.50;1.08;;;4.30;99.90;;;;;;5059994;28;20036;-87
2023/12/22 01:55:23;;;;;;;0.00;0.00;;;4.30;99.90;;;;;;5061185;28;20041;-87
2023/12/22 01:57:49;;;;;;;0.08;0.08;;;4.30;99.90;;;;;;5059948;28;20041;-87
2023/12/22 02:00:15;;;;;;;0.73;0.65;;;4.10;1.00;;;;;;5025814;28;20044;-87
2023/12/22 02:02:44;;;;;;;0.15;0.15;;;3.90;1.00;;;;;;5042992;28;20430;-87
2023/12/22 02:05:11;;;;;;;4.50;1.73;;;3.80;95.90;;;;;;5045743;28;20044;-87
2023/12/22 02:07:43;;;;;;;0.20;0.20;;;3.80;23.70;;;;;;5064913;28;20499;-88
2023/12/22 02:10:09;;;;;;;4.30;0.85;;;3.80;28.90;;;;;;5058670;28;20053;-88
2023/12/22 02:12:36;;;;;;;0.00;0.00;;;3.80;99.90;;;;;;5058999;28;20049;-88
2023/12/22 02:15:03;;;;;;;2.45;1.38;;;3.80;99.90;;;;;;5042595;28;20487;-88
2023/12/22 02:17:38;;;;;;;0.10;0.10;;;3.80;99.90;;;;;;5025668;28;20126;-87
2023/12/22 02:20:06;;;;;;;0.17;0.17;;;4.00;99.90;;;;;;5025030;28;20079;-87
2023/12/22 02:22:31;;;;;;;0.10;0.10;;;3.90;99.90;;;;;;5058083;28;20052;-87
2023/12/22 02:24:57;;;;;;;0.03;0.03;;;4.00;99.90;;;;;;5064623;28;20045;-87
2023/12/22 02:27:35;;;;;;;0.00;0.00;;;4.20;1.00;;;;;;5052865;28;20124;-88
2023/12/22 02:30:09;;;;;;;0.47;0.30;;;4.50;96.00;;;;;;5059995;28;20049;-88
2023/12/22 02:32:38;;;;;;;3.95;1.80;;;4.40;1.00;;;;;;5042198;28;20049;-87
2023/12/22 02:35:09;;;;;;;0.47;0.47;;;4.40;1.00;;;;;;5026047;28;20048;-87
2023/12/22 02:37:36;;;;;;;3.40;2.17;;;4.30;99.90;;;;;;5070796;28;20394;-88
2023/12/22 02:40:02;;;;;;;0.00;0.00;;;4.30;1.00;;;;;;5059292;28;20051;-87
2023/12/22 02:42:30;;;;;;;0.32;0.32;;;4.40;99.90;;;;;;5058574;28;20083;-87
2023/12/22 02:44:59;;;;;;;0.08;0.08;;;4.40;1.00;;;;;;5058542;28;20048;-87
2023/12/22 02:47:27;;;;;;;0.15;0.15;;;4.30;97.60;;;;;;5057060;28;20612;-87
2023/12/22 02:49:53;;;;;;;0.10;0.10;;;4.10;99.90;;;;;;5061235;28;20056;-87
2023/12/22 02:52:19;;;;;;;0.00;0.00;;;4.10;99.90;;;;;;5059237;28;20060;-87
2023/12/22 02:54:46;;;;;;;0.90;0.90;;;4.00;1.00;;;;;;5059182;28;20044;-87
2023/12/22 02:57:13;;;;;;;0.75;0.52;;;3.90;99.90;;;;;;5064742;28;20049;-87
2023/12/22 02:59:38;;;;;;;0.08;0.08;;;3.90;95.80;;;;;;5059140;28;20033;-87
2023/12/22 03:02:04;;;;;;;0.00;0.00;;;4.00;26.60;;;;;;5040353;28;20099;-87
2023/12/22 03:04:30;;;;;;;0.28;0.28;;;3.90;99.90;;;;;;5058344;28;20399;-87
2023/12/22 03:06:55;;;;;;;0.00;0.00;;;3.90;99.90;;;;;;5056888;28;20044;-87
2023/12/22 03:09:21;;;;;;;0.00;0.00;;;3.90;99.90;;;;;;5023952;28;20128;-87
2023/12/22 03:11:48;;;;;;;2.15;1.52;;;4.00;1.00;;;;;;5039526;28;20048;-87
2023/12/22 03:14:13;;;;;;;0.55;0.55;;;4.20;99.90;;;;;;5058430;28;20067;-87
2023/12/22 03:16:39;;;;;;;5.78;1.52;;;4.40;99.90;;;;;;5060734;28;20042;-87
2023/12/22 03:19:06;;;;;;;2.60;2.00;;;4.40;99.90;;;;;;5056852;28;20147;-88
2023/12/22 03:21:32;;;;;;;0.98;0.90;;;4.40;83.90;;;;;;5061637;28;20048;-88
2023/12/22 03:23:57;;;;;;;12.95;2.10;;;4.30;99.90;;;;;;5044504;28;20093;-88
2023/12/22 03:26:23;;;;;;;0.13;0.13;;;4.30;99.90;;;;;;5034419;28;20534;-88
2023/12/22 03:28:48;;;;;;;0.70;0.70;;;4.10;99.90;;;;;;5040560;28;20048;-88
2023/12/22 03:31:14;;;;;;;2.92;2.08;;;3.90;99.90;;;;;;5023880;28;20104;-87
2023/12/22 03:33:40;;;;;;;2.83;1.95;;;3.70;99.90;;;;;;5040321;28;20479;-88
2023/12/22 03:36:05;;;;;;;0.00;0.00;;;3.60;99.90;;;;;;5061135;28;20044;-86
2023/12/22 03:38:31;;;;;;;1.67;1.40;;;3.50;99.90;;;;;;5042913;28;20116;-87
2023/12/22 03:40:57;;;;;;;0.75;0.75;;;3.60;1.00;;;;;;5043638;28;20048;-86
2023/12/22 03:43:22;;;;;;;1.00;0.52;;;3.60;1.00;;;;;;5043625;28;20124;-87
2023/12/22 03:45:48;;;;;;;0.00;0.00;;;3.80;1.00;;;;;;5028026;28;20045;-86
2023/12/22 03:48:13;;;;;;;0.00;0.00;;;3.90;99.90;;;;;;5061619;28;20045;-86
2023/12/22 03:50:39;;;;;;;0.00;0.00;;;4.00;99.90;;;;;;5026548;28;20130;-86
2023/12/22 03:53:04;;;;;;;0.10;0.10;;;4.10;99.90;;;;;;5043489;28;20041;-86
2023/12/22 03:55:30;;;;;;;0.00;0.00;;;4.10;99.90;;;;;;5043864;28;20044;-86
2023/12/22 03:57:56;;;;;;;0.00;0.00;;;4.00;99.90;;;;;;5044099;28;20127;-87
2023/12/22 04:00:21;;;;;;;0.08;0.08;;;4.00;11.40;;;;;;5063353;28;20032;-86
2023/12/22 04:02:47;;;;;;;2.50;1.15;;;4.00;1.00;;;;;;5063267;28;20037;-86
2023/12/22 04:05:12;;;;;;;0.20;0.20;;;4.00;1.00;;;;;;5062734;28;20090;-86
2023/12/22 04:07:38;;;;;;;0.38;0.35;;;4.00;1.00;;;;;;5062848;28;20036;-86
2023/12/22 04:10:04;;;;;;;0.00;0.00;;;4.00;1.00;;;;;;5062879;28;20080;-86
2023/12/22 04:12:29;;;;;;;0.00;0.00;;;4.00;1.00;;;;;;5063035;28;20052;-86
2023/12/22 04:14:55;;;;;;;0.55;0.55;;;4.00;32.70;;;;;;5044235;28;20057;-86
2023/12/22 04:17:20;;;;;;;2.10;0.95;;;3.90;38.10;;;;;;5061935;28;20048;-87
2023/12/22 04:19:46;;;;;;;5.18;1.45;;;4.20;1.00;;;;;;5062365;28;20097;-86
2023/12/22 04:22:12;;;;;;;0.28;0.20;;;3.90;22.60;;;;;;5062237;28;20541;-86
2023/12/22 04:24:37;;;;;;;1.05;0.57;;;3.90;60.90;;;;;;5062333;28;20045;-86
2023/12/22 04:27:03;;;;;;;0.43;0.43;;;4.00;1.00;;;;;;5047751;28;20056;-86
2023/12/22 04:29:29;;;;;;;0.55;0.55;;;4.00;1.00;;;;;;5026955;28;20056;-86
2023/12/22 04:31:54;;;;;;;0.00;0.00;;;3.90;1.00;;;;;;5043922;28;20049;-86
2023/12/22 04:34:20;;;;;;;0.20;0.20;;;4.00;93.60;;;;;;5061954;28;20053;-87
2023/12/22 04:36:46;;;;;;;0.00;0.00;;;4.00;14.80;;;;;;5062149;28;20044;-87
2023/12/22 04:39:12;;;;;;;0.15;0.15;;;4.00;67.40;;;;;;5062005;28;20045;-87
2023/12/22 04:41:38;;;;;;;0.28;0.28;;;4.10;1.00;;;;;;5042286;28;20478;-86
2023/12/22 04:44:04;;;;;;;0.10;0.10;;;4.00;1.00;;;;;;5042180;28;20056;-87
2023/12/22 04:46:30;;;;;;;13.50;1.90;;;4.00;1.00;;;;;;5060036;28;20398;-87
2023/12/22 04:48:56;;;;;;;1.55;1.45;;;4.20;99.90;;;;;;5062012;28;20040;-86
2023/12/22 04:51:21;;;;;;;10.65;1.65;;;4.20;99.90;;;;;;5044412;28;20037;-87
2023/12/22 04:53:47;;;;;;;1.98;0.90;;;4.30;99.90;;;;;;5061963;28;20052;-87
2023/12/22 04:56:14;;;;;;;0.00;0.00;;;4.60;1.00;;;;;;5063547;28;20127;-87
2023/12/22 04:58:39;;;;;;;2.35;1.25;;;4.60;1.00;;;;;;5061522;28;20103;-87
2023/12/22 05:01:05;;;;;;;0.00;0.00;;;4.60;1.00;;;;;;5061739;28;20037;-86
2023/12/22 05:03:30;;;;;;;0.00;0.00;;;4.70;99.90;;;;;;5061783;28;20440;-87
2023/12/22 05:05:56;;;;;;;9.52;0.98;;;5.00;1.00;;;;;;5061216;28;20041;-87
2023/12/22 05:08:21;;;;;;;0.08;0.08;;;4.90;1.00;;;;;;5061385;28;20048;-87
2023/12/22 05:10:47;;;;;;;5.68;2.38;;;4.90;1.00;;;;;;5061016;28;20107;-87
2023/12/22 05:13:13;;;;;;;0.68;0.47;;;4.90;99.90;;;;;;5061036;28;20099;-86
2023/12/22 05:15:38;;;;;;;1.45;0.88;;;5.00;99.90;;;;;;5055786;28;20115;-86
2023/12/22 05:18:04;;;;;;;0.30;0.15;;;5.00;99.90;;;;;;5041098;28;20045;-86
2023/12/22 05:20:29;;;;;;;0.98;0.93;;;6.20;33.30;;;;;;5058990;28;20112;-86
2023/12/22 05:22:55;;;;;;;1.17;1.08;;;5.10;99.90;;;;;;5041292;28;20075;-87
2023/12/22 05:25:21;;;;;;;0.30;0.30;;;5.10;1.00;;;;;;5060941;28;20092;-87
2023/12/22 05:27:47;;;;;;;0.30;0.30;;;5.10;99.90;;;;;;5059500;28;20053;-87
2023/12/22 05:30:13;;;;;;;2.28;1.52;;;5.30;1.00;;;;;;5024054;28;20077;-87
2023/12/22 05:32:38;;;;;;;0.20;0.20;;;5.30;99.90;;;;;;5047668;28;20087;-87
2023/12/22 05:35:05;;;;;;;0.95;0.90;;;5.30;77.70;;;;;;5054696;28;20049;-87
2023/12/22 05:37:30;;;;;;;0.95;0.77;;;5.30;99.90;;;;;;5042055;28;20057;-87
2023/12/22 05:39:56;;;;;;;0.20;0.20;;;5.30;99.90;;;;;;5058774;28;20054;-87
2023/12/22 05:42:21;;;;;;;0.55;0.55;;;5.50;1.00;;;;;;5050075;28;20041;-87
2023/12/22 05:44:49;;;;;;;4.20;1.85;;;5.90;1.00;;;;;;5046257;28;20478;-87
2023/12/22 05:47:15;;;;;;;0.10;0.10;;;5.50;99.90;;;;;;5039686;28;20051;-87
2023/12/22 05:49:41;;;;;;;3.00;1.45;;;5.50;99.90;;;;;;5052889;28;20555;-86
2023/12/22 05:52:09;;;;;;;0.03;0.03;;;5.50;99.90;;;;;;5020155;28;20069;-86
2023/12/22 05:54:35;;;;;;;2.97;2.08;;;5.50;99.90;;;;;;5040820;28;20045;-87
2023/12/22 05:57:01;;;;;;;1.55;1.20;;;5.60;99.90;;;;;;5058344;28;20037;-87
2023/12/22 05:59:27;;;;;;;0.00;0.00;;;5.60;99.90;;;;;;5024383;28;20464;-87
2023/12/22 06:01:53;;;;;;;1.50;0.93;;;5.60;99.90;;;;;;5057693;28;20040;-87
2023/12/22 06:04:19;;;;;;;0.40;0.40;;;5.50;1.00;;;;;;5053592;28;20044;-87
2023/12/22 06:06:45;;;;;;;0.00;0.00;;;5.50;99.90;;;;;;5058992;28;20040;-87
2023/12/22 06:09:12;;;;;;;0.57;0.57;;;5.50;99.90;;;;;;5052866;28;20049;-87
2023/12/22 06:11:39;;;;;;;1.08;1.02;;;5.50;99.90;;;;;;5024874;28;20494;-87
2023/12/22 06:14:05;;;;;;;0.00;0.00;;;5.50;99.90;;;;;;5040807;28;20055;-87
2023/12/22 06:16:31;;;;;;;0.43;0.35;;;5.60;99.90;;;;;;5078638;28;20039;-87
2023/12/22 06:18:56;;;;;;;3.72;2.08;;;5.60;99.90;;;;;;5079532;28;20111;-87
2023/12/22 06:21:22;;;;;;;0.63;0.63;;;5.60;99.90;;;;;;5068583;28;20045;-88
2023/12/22 06:23:48;;;;;;;0.00;0.00;;;5.70;99.90;;;;;;5058076;28;20036;-86
2023/12/22 06:26:14;;;;;;;0.10;0.10;;;5.70;99.90;;;;;;5041796;28;20414;-87
2023/12/22 06:28:39;;;;;;;17.13;0.60;;;5.90;99.90;;;;;;5061480;28;20049;-87
2023/12/22 06:31:06;;;;;;;4.85;1.00;;;6.80;99.90;;;;;;5043470;28;20070;-87
2023/12/22 06:33:32;;;;;;;1.75;0.95;;;5.70;99.90;;;;;;5061346;28;20100;-86
2023/12/22 06:35:58;;;;;;;0.68;0.68;;;5.80;99.90;;;;;;5061236;28;20068;-86
2023/12/22 06:38:23;;;;;;;1.08;0.90;;;5.90;99.90;;;;;;5062307;28;20048;-86
2023/12/22 06:40:50;;;;;;;0.75;0.25;;;5.90;99.90;;;;;;5064632;28;20087;-86
2023/12/22 06:43:16;;;;;;;0.00;0.00;;;5.90;99.90;;;;;;5063682;28;20375;-87
2023/12/22 06:45:41;;;;;;;2.53;0.80;;;5.90;99.90;;;;;;5064667;28;20116;-87
2023/12/22 06:48:09;;;;;;;1.08;0.90;;;6.00;99.90;;;;;;5048354;28;20110;-87
2023/12/22 06:50:36;;;;;;;1.23;1.08;;;5.90;99.90;;;;;;5054242;28;20056;-87
2023/12/22 06:53:02;;;;;;;0.52;0.52;;;6.00;95.00;;;;;;5053056;28;20044;-87
2023/12/22 06:55:28;;;;;;;0.08;0.08;;;5.90;88.90;;;;;;5052512;28;20551;-87
2023/12/22 06:57:54;;;;;;;0.00;0.00;;;6.00;28.90;;;;;;5052774;28;20076;-87
2023/12/22 07:00:20;;;;;;;0.20;0.20;;;6.00;7.70;;;;;;5055403;28;20332;-87
2023/12/22 07:02:46;;;;;;;0.45;0.45;;;5.90;1.00;;;;;;5052775;28;20099;-87
2023/12/22 07:05:21;;;;;;;0.20;0.20;;;5.90;1.00;;;;;;5060630;28;20713;-87
2023/12/22 07:07:46;;;;;;;0.00;0.00;;;5.90;16.80;;;;;;5037848;28;20056;-87
2023/12/22 07:10:12;;;;;;;0.05;0.05;;;5.80;1.00;;;;;;5033801;28;20506;-87
2023/12/22 07:12:39;;;;;;;1.08;0.88;;;5.90;1.00;;;;;;5055872;28;20072;-87
2023/12/22 07:15:06;;;;;;;0.47;0.47;;;5.80;70.80;;;;;;5040117;28;20510;-87
2023/12/22 07:17:32;;;;;;;0.00;0.00;;;5.80;90.60;;;;;;5051485;28;20041;-87
2023/12/22 07:19:58;;;;;;;0.98;0.85;;;5.70;92.60;;;;;;5057125;28;20383;-87
2023/12/22 07:22:23;;;;;;;0.22;0.20;;;5.80;99.90;;;;;;5055832;28;20494;-86
2023/12/22 07:24:51;;;;;;;1.17;1.00;;;5.90;62.90;;;;;;5040081;28;20041;-87
2023/12/22 07:27:17;;;;;;;0.03;0.03;;;5.90;90.30;;;;;;5020653;28;20033;-87
2023/12/22 07:29:42;;;;;;;0.00;0.00;;;5.90;37.10;;;;;;5054312;28;20048;-87
2023/12/22 07:32:08;;;;;;;0.00;0.00;;;5.90;99.90;;;;;;5058824;28;20045;-87
2023/12/22 07:34:33;;;;;;;1.55;1.40;;;5.90;99.90;;;;;;5034433;28;20060;-87
2023/12/22 07:36:59;;;;;;;0.20;0.20;;;5.80;99.90;;;;;;5057020;28;20044;-87
2023/12/22 07:39:25;;;;;;;0.88;0.80;;;5.80;99.90;;;;;;5056835;28;20041;-87
2023/12/22 07:41:50;;;;;;;0.20;0.20;;;5.80;99.90;;;;;;5058336;28;20113;-87
2023/12/22 07:44:16;;;;;;;0.55;0.52;;;5.90;99.90;;;;;;5038885;28;20036;-87
2023/12/22 07:46:41;;;;;;;0.63;0.17;;;5.90;99.90;;;;;;5058322;28;20056;-87
2023/12/22 07:49:07;;;;;;;0.20;0.20;;;5.90;99.90;;;;;;5055532;28;20064;-87
2023/12/22 07:51:32;;;;;;;0.20;0.20;;;6.00;99.90;;;;;;5038018;28;20048;-88
2023/12/22 07:53:58;;;;;;;1.65;1.15;;;5.90;99.90;;;;;;5061368;28;20084;-87
2023/12/22 07:56:24;;;;;;;0.00;0.00;;;6.00;99.90;;;;;;5055603;28;20055;-87
2023/12/22 07:58:49;;;;;;;0.13;0.08;;;6.10;99.90;;;;;;5064739;28;20099;-87
2023/12/22 08:01:15;;;;;;;0.00;0.00;;;6.10;99.90;;;;;;5048769;28;20037;-87
2023/12/22 08:03:41;;;;;;;0.00;0.00;;;6.10;99.90;;;;;;5060081;28;20037;-87
2023/12/22 08:06:07;;;;;;;2.28;0.82;;;6.10;99.90;;;;;;5034377;28;20080;-87
2023/12/22 08:08:34;;;;;;;0.00;0.00;;;6.20;99.90;;;;;;5036115;28;20049;-87
2023/12/22 08:11:00;;;;;;;5.95;1.30;;;6.30;99.90;;;;;;5046730;28;20056;-87
2023/12/22 08:13:25;;;;;;;1.65;1.45;;;6.20;99.90;;;;;;5054085;28;20123;-88
2023/12/22 08:15:51;;;;;;;0.00;0.00;;;6.20;99.90;;;;;;5051817;28;20478;-87
2023/12/22 08:18:17;;;;;;;0.30;0.30;;;7.50;99.90;;;;;;5033305;28;21036;-88
2023/12/22 08:20:42;;;;;;;0.00;0.00;;;7.10;99.90;;;;;;5052977;28;20037;-88
2023/12/22 08:23:08;;;;;;;0.00;0.00;;;6.30;99.90;;;;;;5054704;28;20068;-88
2023/12/22 08:25:34;;;;;;;0.47;0.47;;;6.30;99.90;;;;;;5054666;28;20048;-88
2023/12/22 08:28:00;;;;;;;0.05;0.05;;;6.30;99.90;;;;;;5054731;28;20048;-87
2023/12/22 08:30:26;;;;;;;0.20;0.20;;;6.30;99.90;;;;;;5054953;28;20041;-87
2023/12/22 08:32:52;;;;;;;4.80;2.03;;;6.30;99.90;;;;;;5054804;28;20055;-88
2023/12/22 08:35:18;;;;;;;0.85;0.85;;;6.30;99.90;;;;;;5059955;28;20090;-88
2023/12/22 08:37:43;;;;;;;0.38;0.35;;;6.30;99.90;;;;;;5064200;28;20045;-87
2023/12/22 08:40:09;;;;;;;0.30;0.13;;;6.30;99.90;;;;;;5043668;28;20175;-88
2023/12/22 08:42:35;;;;;;;0.05;0.05;;;6.40;99.90;;;;;;5076455;28;20090;-87
2023/12/22 08:45:01;;;;;;;0.57;0.57;;;6.40;99.90;;;;;;5049659;28;20398;-88
2023/12/22 08:47:27;;;;;;;0.17;0.17;;;6.60;99.90;;;;;;5042661;28;20107;-87
2023/12/22 08:49:53;;;;;;;0.00;0.00;;;6.60;1.00;;;;;;5060651;28;20051;-87
2023/12/22 08:52:19;;;;;;;10.55;1.13;;;6.50;1.00;;;;;;5056140;28;20076;-87
2023/12/22 08:54:44;;;;;;;0.00;0.00;;;6.40;99.90;;;;;;5055729;28;20052;-87
2023/12/22 08:57:10;;;;;;;0.45;0.45;;;6.40;99.90;;;;;;5072045;28;20494;-87
2023/12/22 08:59:36;;;;;;;2.55;0.98;;;6.90;99.90;;;;;;5057678;28;20044;-87
2023/12/22 09:02:01;;;;;;;0.00;0.00;;;6.30;99.90;;;;;;5053417;28;20502;-87
2023/12/22 09:04:29;;;;;;;0.20;0.20;;;6.40;99.90;;;;;;5035591;28;20049;-87
2023/12/22 09:06:55;;;;;;;1.80;0.63;;;6.30;99.90;;;;;;5070173;28;20054;-87
2023/12/22 09:09:21;;;;;;;0.60;0.60;;;6.30;99.90;;;;;;5068781;28;20033;-87
2023/12/22 09:11:47;;;;;;;2.97;0.70;;;6.40;99.90;;;;;;5052599;28;20052;-87
2023/12/22 09:14:13;;;;;;;0.00;0.00;;;6.30;1.00;;;;;;5060263;28;20052;-87
2023/12/22 09:16:38;;;;;;;0.00;0.00;;;6.30;1.00;;;;;;5035459;28;20116;-87
2023/12/22 09:19:04;;;;;;;0.00;0.00;;;6.30;99.90;;;;;;5053317;28;20041;-87
2023/12/22 09:21:30;;;;;;;0.00;0.00;;;6.40;1.00;;;;;;5052499;28;20048;-88
2023/12/22 09:23:58;;;;;;;0.38;0.38;;;6.50;95.90;;;;;;5053082;28;20131;-88
2023/12/22 09:26:24;;;;;;;0.55;0.55;;;6.50;9.90;;;;;;5034918;28;20474;-88
2023/12/22 09:28:49;;;;;;;0.00;0.00;;;6.60;1.00;;;;;;5055658;28;20047;-88
2023/12/22 09:31:18;;;;;;;0.00;0.00;;;6.60;1.00;;;;;;5049859;28;20512;-87
2023/12/22 09:33:43;;;;;;;0.00;0.00;;;7.60;1.00;;;;;;5068436;28;20487;-87
2023/12/22 09:36:09;;;;;;;0.05;0.05;;;6.70;1.00;;;;;;5054217;28;20041;-87
2023/12/22 09:38:37;;;;;;;0.00;0.00;;;6.70;1.00;;;;;;5055212;28;20412;-87
2023/12/22 09:41:03;;;;;;;0.28;0.28;;;6.70;1.00;;;;;;5053868;28;20041;-88
2023/12/22 09:43:33;;;;;;;0.00;0.00;;;6.70;99.90;;;;;;5035506;28;20087;-87
2023/12/22 09:46:00;;;;;;;0.00;0.00;;;6.80;99.90;;;;;;5036357;28;20045;-87
2023/12/22 09:48:27;;;;;;;0.00;0.00;;;6.70;99.90;;;;;;5054769;28;20045;-87
2023/12/22 09:50:54;;;;;;;0.00;0.00;;;6.70;99.90;;;;;;5034600;28;20049;-87
2023/12/22 09:53:21;;;;;;;0.05;0.03;;;6.70;99.90;;;;;;5049529;28;20128;-87
2023/12/22 09:55:48;;;;;;;0.00;0.00;;;7.90;99.90;;;;;;5053961;28;20482;-87
2023/12/22 09:58:16;;;;;;;0.00;0.00;;;7.90;99.90;;;;;;5036811;28;20402;-87
2023/12/22 10:00:43;;;;;;;5.82;1.27;;;6.70;99.90;;;;;;5054360;28;20077;-87
2023/12/22 10:03:11;;;;;;;0.30;0.30;;;7.90;99.90;;;;;;5036304;28;20106;-87
2023/12/22 10:05:39;;;;;;;0.00;0.00;;;7.10;99.90;;;;;;5053939;28;20037;-87
2023/12/22 10:08:05;;;;;;;0.00;0.00;;;6.80;99.90;;;;;;5047253;28;20048;-88
2023/12/22 10:10:32;;;;;;;4.38;0.60;;;6.80;99.90;;;;;;5034091;28;20049;-87
2023/12/22 10:12:59;;;;;;;1.27;1.17;;;6.80;99.90;;;;;;5053688;28;20059;-87
2023/12/22 10:15:26;;;;;;;0.00;0.00;;;6.90;99.90;;;;;;5052912;28;20128;-88
2023/12/22 10:17:53;;;;;;;0.00;0.00;;;6.90;99.90;;;;;;5053453;28;20128;-88
2023/12/22 10:20:19;;;;;;;0.00;0.00;;;7.00;99.90;;;;;;5035639;28;20098;-88
2023/12/22 10:22:44;;;;;;;0.10;0.10;;;7.00;99.90;;;;;;5053485;28;20044;-87
2023/12/22 10:25:10;;;;;;;0.52;0.52;;;7.00;99.90;;;;;;5053331;28;20079;-88
2023/12/22 10:27:36;;;;;;;0.00;0.00;;;7.00;99.90;;;;;;5053253;28;20045;-88
2023/12/22 10:30:03;;;;;;;0.00;0.00;;;7.00;99.90;;;;;;5035711;28;20077;-87
2023/12/22 10:32:29;;;;;;;0.00;0.00;;;7.10;99.90;;;;;;5053132;28;20486;-88
2023/12/22 10:34:59;;;;;;;0.00;0.00;;;7.20;99.90;;;;;;5053392;28;20041;-88
2023/12/22 10:37:24;;;;;;;0.00;0.00;;;7.20;99.90;;;;;;5053179;28;20047;-87
2023/12/22 10:39:53;;;;;;;0.00;0.00;;;7.10;99.90;;;;;;5035560;28;20399;-88
2023/12/22 10:42:18;;;;;;;0.10;0.10;;;7.20;99.90;;;;;;5053415;28;20045;-88
2023/12/22 10:44:45;;;;;;;0.63;0.63;;;7.20;99.90;;;;;;5051988;28;20399;-87
2023/12/22 10:47:10;;;;;;;0.00;0.00;;;7.20;99.90;;;;;;5053487;28;20114;-87
2023/12/22 10:49:36;;;;;;;0.00;0.00;;;7.20;99.90;;;;;;5034861;28;20097;-87
2023/12/22 10:52:02;;;;;;;0.00;0.00;;;7.20;99.90;;;;;;5053438;28;20045;-87
2023/12/22 10:54:29;;;;;;;0.00;0.00;;;7.20;99.90;;;;;;5052833;28;20159;-87
2023/12/22 10:57:00;;;;;;;2.42;0.70;;;7.20;99.90;;;;;;5052651;28;20045;-87
2023/12/22 10:59:28;;;;;;;0.00;0.00;;;7.30;99.90;;;;;;5052717;28;20041;-87
2023/12/22 11:01:57;;;;;;;0.00;0.00;;;7.30;99.90;;;;;;5034975;28;20494;-87
2023/12/22 11:04:29;;;;;;;0.32;0.32;;;7.30;99.90;;;;;;5035343;28;20446;-87
2023/12/22 11:06:58;;;;;;;0.17;0.17;;;7.30;99.90;;;;;;5034876;28;20049;-87
2023/12/22 11:09:26;;;;;;;0.15;0.15;;;7.40;99.90;;;;;;5052340;28;20036;-87
2023/12/22 11:11:52;;;;;;;0.52;0.47;;;7.40;99.90;;;;;;5052752;28;20090;-87
2023/12/22 11:14:19;;;;;;;0.13;0.13;;;7.40;99.90;;;;;;5052767;28;20067;-87
2023/12/22 11:16:48;;;;;;;0.00;0.00;;;7.40;99.90;;;;;;5035210;28;20041;-87
2023/12/22 11:19:14;;;;;;;0.00;0.00;;;7.50;99.90;;;;;;5052685;28;20084;-87
2023/12/22 11:21:40;;;;;;;0.00;0.00;;;7.50;99.90;;;;;;5052362;28;20056;-88
2023/12/22 11:24:08;;;;;;;0.13;0.08;;;7.60;99.90;;;;;;5052444;28;20495;-87
2023/12/22 11:26:34;;;;;;;2.65;1.27;;;7.60;99.90;;;;;;5052562;28;20053;-87
2023/12/22 11:29:02;;;;;;;0.00;0.00;;;7.60;99.90;;;;;;5052714;28;20045;-87
2023/12/22 11:31:31;;;;;;;0.00;0.00;;;7.70;99.90;;;;;;5052467;28;20392;-88
2023/12/22 11:33:59;;;;;;;8.98;0.75;;;7.70;99.90;;;;;;5034668;28;20074;-87
2023/12/22 11:36:25;;;;;;;1.65;0.80;;;7.70;99.90;;;;;;5052302;28;20041;-87
2023/12/22 11:38:51;;;;;;;0.47;0.28;;;7.70;99.90;;;;;;5052529;28;20452;-87
2023/12/22 11:41:22;;;;;;;6.00;0.32;;;7.70;99.90;;;;;;5034642;28;20037;-87
2023/12/22 11:43:50;;;;;;;0.55;0.32;;;7.80;99.90;;;;;;5018630;28;20045;-87
2023/12/22 11:46:18;;;;;;;13.68;1.08;;;7.80;99.90;;;;;;5052125;28;20045;-87
2023/12/22 11:48:48;;;;;;;0.00;0.00;;;7.80;99.90;;;;;;5052584;28;20383;-87
2023/12/22 11:51:14;;;;;;;0.00;0.00;;;7.80;99.90;;;;;;5034545;28;20076;-87
2023/12/22 11:53:40;;;;;;;0.00;0.00;;;7.80;99.90;;;;;;5034135;28;20075;-87
2023/12/22 11:56:10;;;;;;;0.38;0.30;;;7.80;99.90;;;;;;5054099;28;20483;-87
2023/12/22 11:58:50;;;;;;;0.10;0.10;;;7.70;99.90;;;;;;5056285;28;20081;-87
2023/12/22 12:01:17;;;;;;;0.22;0.20;;;7.70;99.90;;;;;;5056426;28;20048;-87
2023/12/22 12:03:52;;;;;;;4.47;1.85;;;7.70;99.90;;;;;;5055843;28;20103;-87
2023/12/22 12:06:30;;;;;;;0.35;0.35;;;7.60;99.90;;;;;;5055726;28;20554;-87
2023/12/22 12:09:04;;;;;;;0.00;0.00;;;7.60;1.00;;;;;;5055580;28;20309;-87
2023/12/22 12:11:52;;;;;;;1.25;0.95;;;7.50;1.00;;;;;;5055787;28;20059;-87
2023/12/22 12:14:22;;;;;;;1.20;1.15;;;7.50;1.00;;;;;;5055382;28;20049;-87
2023/12/22 12:16:48;;;;;;;0.00;0.00;;;7.50;1.00;;;;;;5055321;28;20339;-87
2023/12/22 12:19:14;;;;;;;0.85;0.85;;;7.50;10.20;;;;;;5056107;28;20048;-88
2023/12/22 12:21:40;;;;;;;0.00;0.00;;;7.40;53.00;;;;;;5055885;28;20053;-87
2023/12/22 12:24:06;;;;;;;1.00;0.95;;;7.40;99.90;;;;;;5055923;28;20060;-87
2023/12/22 12:26:35;;;;;;;0.47;0.43;;;7.40;76.00;;;;;;5037787;28;20049;-87
2023/12/22 12:29:01;;;;;;;1.65;0.73;;;7.40;99.90;;;;;;5055612;28;20095;-87
2023/12/22 12:31:41;;;;;;;0.00;0.00;;;7.40;99.90;;;;;;5035966;28;20076;-87
2023/12/22 12:34:10;;;;;;;4.75;2.28;;;7.40;99.90;;;;;;5053546;28;20045;-87
2023/12/22 12:36:36;;;;;;;5.95;1.20;;;7.40;99.90;;;;;;5054033;28;20094;-87
2023/12/22 12:39:14;;;;;;;0.40;0.32;;;7.50;99.90;;;;;;5037105;28;20037;-87
2023/12/22 12:41:41;;;;;;;0.10;0.10;;;7.40;95.20;;;;;;5054900;28;20052;-87
2023/12/22 12:44:08;;;;;;;0.28;0.28;;;7.50;99.90;;;;;;5036113;28;20502;-87
2023/12/22 12:46:35;;;;;;;0.05;0.05;;;7.50;99.90;;;;;;5053609;28;20048;-87
2023/12/22 12:49:07;;;;;;;1.00;0.80;;;7.60;59.20;;;;;;5035716;28;20037;-87
2023/12/22 12:51:42;;;;;;;0.10;0.10;;;7.60;1.00;;;;;;5052096;28;20055;-87
2023/12/22 12:54:08;;;;;;;7.43;1.55;;;7.60;1.00;;;;;;5021441;28;20080;-87
2023/12/22 12:56:39;;;;;;;0.25;0.05;;;7.60;1.00;;;;;;5015339;28;20056;-87